Wednesday, July 23, 2014, 4:42 AM CDT
Back to Local

KHDC, Hammond, Hammond Municipal Airport

Location: Hammond, LA, United States Lat: 30.521
Local Time: 4:42 AM CDT ( 9:42 GMT) Lon: -90.418
Time Zone: US/Central Elev: 42 ft

Show me the last for .
Show Coded

Time T Td Feel RH Dir Speed Gust Alt SLP Vis Weather Sky Remarks
2014-07-23 04:15 72 68 76 88 - Calm - 30.03 - 10 CLR None
2014-07-23 03:55 70 68 - 94 - Calm - 30.03 - 7 CLR None
2014-07-23 03:35 72 68 76 88 360° 3 - 30.04 - 7 CLR None
2014-07-23 03:15 72 68 76 88 - Calm - 30.03 - 10 CLR None
2014-07-23 02:35 72 68 76 88 - Calm - 30.04 - 10 CLR None
2014-07-23 02:15 72 68 76 88 - Calm - 30.03 - 10 CLR None
2014-07-23 01:55 72 68 76 88 - Calm - 30.04 - 10 CLR None
2014-07-23 01:35 72 68 76 88 40° 3 - 30.05 - 10 CLR None
2014-07-23 01:15 72 68 76 88 - Calm - 30.05 - 7 CLR None
2014-07-23 00:55 73 68 77 83 - Calm - 30.05 - 10 CLR None
2014-07-23 00:35 73 68 77 83 - Calm - 30.05 - 10 CLR None
2014-07-23 00:15 73 70 77 88 - Calm - 30.06 - 10 CLR None
2014-07-22 23:55 73 70 77 88 50° 3 - 30.06 - 10 CLR None
2014-07-22 23:35 75 70 79 83 20° 3 - 30.06 - 10 CLR None
2014-07-22 23:15 75 70 79 83 20° 3 - 30.07 - 10 CLR None
2014-07-22 22:15 77 70 81 78 - Calm - 30.05 - 10 CLR None
2014-07-22 21:55 77 70 81 78 130° 3 - 30.04 - 10 CLR None
2014-07-22 21:35 77 70 81 78 100° 3 - 30.04 - 10 SCT120 None
2014-07-22 21:15 77 70 81 78 - Calm - 30.05 - 10 BKN120 None
2014-07-22 20:35 79 70 83 74 40° 5 - 30.04 - 10 CLR None
2014-07-22 20:15 79 70 83 74 60° 6 - 30.04 - 10 CLR None
2014-07-22 19:55 81 70 85 69 50° 7 - 30.03 - 10 CLR None
2014-07-22 19:35 81 72 85 74 40° 3 - 30.03 - 10 CLR None
2014-07-22 19:15 82 72 88 69 40° 6 - 30.02 - 10 CLR None
2014-07-22 18:55 84 72 90 66 40° 5 - 30.02 - 10 CLR None
2014-07-22 18:35 84 72 90 66 70° 5 - 30.01 - 10 CLR None
2014-07-22 18:15 84 72 90 66 100° 9 - 30.02 - 10 CLR None
2014-07-22 17:55 86 70 91 58 90° 9 - 30.02 - 10 CLR None
2014-07-22 17:35 86 70 91 58 100° 6 - 30.02 - 10 CLR None
2014-07-22 17:15 88 68 92 52 60° 7 - 30.01 - 10 CLR None
2014-07-22 16:55 90 66 93 46 60° 7 - 30.00 - 10 CLR None
2014-07-22 16:35 91 66 96 43 30° 6 - 30.00 - 10 CLR None
2014-07-22 16:15 91 66 96 43 80° 5 - 30.01 - 10 CLR None
2014-07-22 15:55 90 68 94 49 - Calm - 30.01 - 10 CLR None
2014-07-22 15:35 91 66 96 43 30° 6 - 30.01 - 10 CLR None
2014-07-22 15:15 90 66 93 46 40° 3 - 30.02 - 10 SCT045 SCT060 SCT090 None
2014-07-22 14:55 90 66 93 46 70° 3 - 30.02 - 10 BKN045 BKN060 None
2014-07-22 14:35 91 66 96 43 - Calm - 30.02 - 10 SCT049 None
2014-07-22 14:15 90 66 93 46 - Calm - 30.02 - 10 CLR None
2014-07-22 13:35 90 68 94 49 - Calm - 30.04 - 10 SCT060 SCT070 None
2014-07-22 13:15 90 66 93 46 330° 3 - 30.04 - 10 SCT050 SCT070 None
2014-07-22 12:55 88 66 91 48 50° 3 - 30.05 - 10 SCT050 SCT065 None
2014-07-22 12:35 90 66 93 46 360° 5 - 30.05 - 10 SCT040 None
2014-07-22 12:15 90 66 93 46 360° 5 - 30.05 - 10 SCT060 None
2014-07-22 11:55 90 64 92 43 20° 7 - 30.05 - 10 SCT060 None
2014-07-22 11:35 90 64 92 43 - Calm - 30.05 - 10 CLR None
2014-07-22 11:15 88 66 91 48 - Calm - 30.05 - 10 CLR None
2014-07-22 10:55 88 68 92 52 - Calm - 30.06 - 10 CLR None
2014-07-22 10:35 86 70 91 58 - Calm - 30.06 - 10 CLR None
2014-07-22 10:15 84 72 90 66 - Calm - 30.05 - 10 CLR None
2014-07-22 09:55 82 72 88 69 - Calm - 30.06 - 10 CLR None
2014-07-22 09:35 79 72 83 78 - Calm - 30.06 - 10 CLR None
2014-07-22 09:15 79 72 83 78 - Calm - 30.05 - 10 CLR None
2014-07-22 08:55 79 72 83 78 - Calm - 30.05 - 10 CLR None
2014-07-22 08:35 77 72 81 83 - Calm - 30.05 - 10 CLR None
2014-07-22 08:15 75 72 79 88 - Calm - 30.05 - 10 CLR None
2014-07-22 07:55 73 70 77 88 - Calm - 30.05 - 10 CLR None
2014-07-22 07:35 73 70 77 88 - Calm - 30.04 - 7 CLR None
2014-07-22 07:15 72 68 76 88 - Calm - 30.05 - 7 CLR None
2014-07-22 06:55 70 68 - 94 - Calm - 30.04 - 7 CLR None
2014-07-22 06:35 70 68 - 94 - Calm - 30.04 - 7 CLR None
2014-07-22 05:50 72 68 76 88 - Calm - 30.04 - 7 CLR None
2014-07-22 05:15 72 68 76 88 - Calm - 30.02 - 5 BR CLR None
2014-07-22 04:55 72 68 76 88 - Calm - 30.02 - 10 CLR None

Support USWX by starting your Amazon purchase here.